Time;durP1;ratioP1;P1;durP2;ratioP2;P2;SDS_P1;SDS_P2;PMS_P1;PMS_P2;Temp;Humidity;BMP_temperature;BMP_pressure;BME280_temperature;BME280_humidity;BME280_pressure;Samples;Min_cycle;Max_cycle;Signal;HPM_P1;HPM_P2
2022/02/07 00:05:56;;;;;;;12.98;2.10;;;3.90;99.90;;;;;;5068709;28;20065;-84
2022/02/07 00:08:22;;;;;;;9.35;1.00;;;4.30;99.90;;;;;;5043779;28;20051;-84
2022/02/07 00:10:48;;;;;;;7.35;0.75;;;3.80;99.90;;;;;;5035915;28;20175;-84
2022/02/07 00:13:13;;;;;;;6.68;0.90;;;3.70;99.90;;;;;;5061594;28;20033;-85
2022/02/07 00:15:39;;;;;;;8.80;1.02;;;3.70;99.90;;;;;;5065184;28;20500;-84
2022/02/07 00:18:06;;;;;;;10.73;0.93;;;3.70;99.90;;;;;;5046915;28;20405;-84
2022/02/07 00:20:33;;;;;;;7.10;0.88;;;3.60;99.90;;;;;;5049056;28;20632;-84
2022/02/07 00:22:59;;;;;;;6.32;0.60;;;3.60;99.90;;;;;;5069645;28;20113;-84
2022/02/07 00:25:24;;;;;;;8.65;1.33;;;3.90;99.90;;;;;;5073203;28;20036;-85
2022/02/07 00:27:50;;;;;;;8.68;0.82;;;4.70;99.90;;;;;;5071933;28;20061;-85
2022/02/07 00:30:19;;;;;;;8.20;0.95;;;3.50;99.90;;;;;;5071239;28;20068;-84
2022/02/07 00:32:45;;;;;;;10.73;0.90;;;3.50;99.90;;;;;;5043750;28;20080;-85
2022/02/07 00:35:15;;;;;;;11.55;1.48;;;3.60;99.90;;;;;;5073925;28;20571;-84
2022/02/07 00:37:45;;;;;;;10.57;1.55;;;3.60;99.90;;;;;;5056509;28;20083;-84
2022/02/07 00:42:50;;;;;;;14.60;2.17;;;3.60;99.90;;;;;;5076044;28;20048;-85
2022/02/07 00:45:25;;;;;;;14.68;2.50;;;3.80;99.90;;;;;;5066671;28;20127;-85
2022/02/07 00:47:51;;;;;;;15.70;2.93;;;3.70;99.90;;;;;;5053826;28;20479;-84
2022/02/07 00:50:18;;;;;;;11.38;1.70;;;3.80;99.90;;;;;;5043096;28;20119;-84
2022/02/07 00:52:44;;;;;;;20.25;3.30;;;3.90;99.90;;;;;;5043893;28;20044;-84
2022/02/07 00:55:09;;;;;;;13.70;1.90;;;3.80;99.90;;;;;;5066252;28;20045;-84
2022/02/07 00:57:35;;;;;;;22.48;3.45;;;4.10;99.90;;;;;;5069008;28;20032;-84
2022/02/07 01:00:07;;;;;;;21.02;2.90;;;3.90;99.90;;;;;;5057104;28;20044;-84
2022/02/07 01:02:36;;;;;;;16.35;2.20;;;3.80;99.90;;;;;;5071713;28;20040;-84
2022/02/07 01:05:04;;;;;;;15.63;2.15;;;3.80;99.90;;;;;;5031837;28;20037;-84
2022/02/07 01:08:43;;;;;;;17.10;2.53;;;3.90;99.90;;;;;;5054566;28;20047;-85
2022/02/07 01:11:55;;;;;;;7.22;1.50;;;3.80;99.90;;;;;;5056423;28;20044;-84
2022/02/07 01:20:46;;;;;;;10.10;1.67;;;3.80;99.90;;;;;;5071248;28;20054;-84
2022/02/07 01:52:10;;;;;;;12.68;2.08;;;3.80;99.90;;;;;;5051490;28;20051;-85
2022/02/07 01:54:47;;;;;;;13.85;1.50;;;3.90;99.90;;;;;;5054054;28;20041;-85
2022/02/07 01:57:15;;;;;;;16.27;1.98;;;3.80;99.90;;;;;;5052271;28;20032;-85
2022/02/07 02:00:11;;;;;;;7.40;1.45;;;4.20;99.90;;;;;;5050493;28;20036;-86
2022/02/07 02:02:49;;;;;;;13.40;1.33;;;3.90;99.90;;;;;;5051023;28;20403;-85
2022/02/07 02:05:15;;;;;;;12.10;2.10;;;3.90;99.90;;;;;;5036424;28;20032;-85
2022/02/07 02:08:07;;;;;;;14.13;1.60;;;4.00;99.90;;;;;;5047759;28;20558;-84
2022/02/07 02:10:34;;;;;;;13.57;1.73;;;4.00;99.90;;;;;;5064708;28;20049;-84
2022/02/07 02:13:21;;;;;;;14.07;1.73;;;4.00;99.90;;;;;;5079772;28;20124;-84
2022/02/07 02:16:13;;;;;;;11.95;1.90;;;3.90;99.90;;;;;;5049724;28;20032;-85
2022/02/07 02:47:49;;;;;;;16.25;1.98;;;4.30;99.90;;;;;;5066397;28;20037;-84
2022/02/07 02:50:36;;;;;;;13.45;1.95;;;4.30;99.90;;;;;;5029827;28;20040;-85
2022/02/07 02:53:18;;;;;;;17.45;2.85;;;4.40;99.90;;;;;;5064562;28;20045;-85
2022/02/07 02:55:48;;;;;;;14.45;2.33;;;4.30;99.90;;;;;;5053704;28;20511;-85
2022/02/07 02:58:48;;;;;;;19.10;3.65;;;4.40;99.90;;;;;;5029034;28;20505;-84
2022/02/07 03:01:17;;;;;;;17.27;2.10;;;4.40;99.90;;;;;;5039790;28;20049;-85
2022/02/07 03:03:42;;;;;;;22.45;2.33;;;4.50;99.90;;;;;;5075524;28;20086;-84
2022/02/07 03:06:08;;;;;;;11.80;2.38;;;4.50;99.90;;;;;;5048728;28;20040;-84
2022/02/07 03:08:35;;;;;;;18.10;2.17;;;4.40;99.90;;;;;;5063418;28;20044;-84
2022/02/07 03:11:05;;;;;;;16.50;2.55;;;4.40;99.90;;;;;;5036738;28;20048;-84
2022/02/07 03:13:47;;;;;;;16.70;2.25;;;4.40;99.90;;;;;;5047276;28;20760;-85
2022/02/07 03:19:25;;;;;;;19.20;3.78;;;4.50;99.90;;;;;;5080708;28;20090;-84
2022/02/07 03:21:57;;;;;;;16.05;2.70;;;4.50;99.90;;;;;;5038191;28;20062;-85
2022/02/07 03:24:25;;;;;;;21.80;3.08;;;4.60;99.90;;;;;;5031788;28;20033;-85
2022/02/07 03:26:51;;;;;;;20.23;3.10;;;4.60;99.90;;;;;;5063454;28;20040;-85
2022/02/07 03:29:16;;;;;;;18.02;3.47;;;4.60;99.90;;;;;;5030519;28;20554;-84
2022/02/07 03:31:44;;;;;;;18.92;2.70;;;4.60;99.90;;;;;;5037345;28;20044;-85
2022/02/07 03:34:10;;;;;;;18.00;2.80;;;4.60;99.90;;;;;;5047756;28;20041;-84
2022/02/07 03:36:38;;;;;;;25.30;3.33;;;4.70;99.90;;;;;;5068434;28;20124;-85
2022/02/07 03:39:19;;;;;;;25.73;2.80;;;4.70;99.90;;;;;;5051076;28;20127;-85
2022/02/07 03:41:44;;;;;;;17.83;2.97;;;4.70;99.90;;;;;;5032178;28;20128;-85
2022/02/07 03:44:10;;;;;;;23.45;3.75;;;4.70;99.90;;;;;;5033918;28;20076;-84
2022/02/07 03:46:35;;;;;;;17.77;2.10;;;4.70;99.90;;;;;;5066123;28;20101;-86
2022/02/07 03:49:06;;;;;;;19.20;3.38;;;4.80;99.90;;;;;;5034188;28;20037;-85
2022/02/07 03:51:46;;;;;;;19.70;2.33;;;4.80;99.90;;;;;;5039480;28;20392;-85
2022/02/07 03:54:30;;;;;;;15.82;2.47;;;4.90;99.90;;;;;;5054287;28;20494;-84
2022/02/07 03:56:57;;;;;;;19.67;3.17;;;4.80;99.90;;;;;;5046722;28;20036;-85
2022/02/07 03:59:22;;;;;;;18.20;3.50;;;4.80;99.90;;;;;;5036445;28;20041;-84
2022/02/07 04:01:49;;;;;;;23.60;2.88;;;4.80;99.90;;;;;;5032893;28;20097;-84
2022/02/07 04:04:18;;;;;;;17.27;2.47;;;4.90;99.90;;;;;;5021566;28;20556;-84
2022/02/07 04:06:46;;;;;;;19.92;3.28;;;4.80;99.90;;;;;;5036797;28;20756;-85
2022/02/07 04:09:23;;;;;;;24.00;2.80;;;4.80;99.90;;;;;;5058125;28;20421;-85
2022/02/07 04:12:07;;;;;;;19.58;2.53;;;4.80;99.90;;;;;;5033708;28;20051;-85
2022/02/07 04:14:36;;;;;;;20.15;2.83;;;4.80;99.90;;;;;;5049534;28;20031;-84
2022/02/07 04:17:29;;;;;;;19.48;3.17;;;4.80;99.90;;;;;;5067275;28;20091;-85
2022/02/07 04:20:28;;;;;;;16.98;2.97;;;4.90;99.90;;;;;;5052816;28;20499;-84
2022/02/07 04:22:59;;;;;;;22.27;3.22;;;4.80;99.90;;;;;;4999385;28;20058;-85
2022/02/07 04:25:25;;;;;;;24.30;3.53;;;4.70;99.90;;;;;;5051692;28;20032;-84
2022/02/07 04:27:54;;;;;;;26.35;3.50;;;4.80;99.90;;;;;;5033411;28;20040;-85
2022/02/07 04:30:31;;;;;;;27.90;4.43;;;4.80;99.90;;;;;;5050927;28;20052;-84
2022/02/07 04:33:01;;;;;;;29.90;4.18;;;4.80;99.90;;;;;;5018845;28;20053;-85
2022/02/07 04:35:33;;;;;;;23.58;3.70;;;4.90;99.90;;;;;;5051548;28;20197;-85
2022/02/07 04:38:03;;;;;;;21.75;4.20;;;5.20;99.90;;;;;;5048190;28;20440;-85
2022/02/07 04:40:29;;;;;;;23.70;4.10;;;4.90;99.90;;;;;;5035279;28;20037;-85
2022/02/07 04:43:10;;;;;;;25.27;4.32;;;4.90;99.90;;;;;;5065651;28;20044;-85
2022/02/07 04:49:09;;;;;;;27.92;4.78;;;4.90;99.90;;;;;;5069320;28;20090;-85
2022/02/07 05:03:25;;;;;;;21.92;3.03;;;4.90;99.90;;;;;;5047210;28;20044;-84
2022/02/07 05:15:51;;;;;;;24.80;3.22;;;5.20;99.90;;;;;;5050207;28;20049;-84
2022/02/07 05:18:20;;;;;;;21.77;3.92;;;5.20;99.90;;;;;;5035522;28;20118;-84
2022/02/07 05:20:51;;;;;;;21.95;3.33;;;5.00;99.90;;;;;;5033953;28;20037;-84
2022/02/07 05:23:20;;;;;;;26.30;3.88;;;5.20;99.90;;;;;;5054597;28;20041;-85
2022/02/07 05:26:43;;;;;;;24.13;4.90;;;5.80;99.90;;;;;;5051479;28;20032;-84
2022/02/07 05:30:20;;;;;;;24.98;5.03;;;5.00;99.90;;;;;;4999162;28;20569;-85
2022/02/07 05:33:09;;;;;;;28.65;4.65;;;5.00;99.90;;;;;;5002921;28;20098;-85
2022/02/07 05:36:08;;;;;;;21.52;2.72;;;5.00;99.90;;;;;;5059575;28;20066;-84
2022/02/07 05:39:06;;;;;;;25.33;3.10;;;5.10;99.90;;;;;;5026954;28;20108;-84
2022/02/07 05:41:53;;;;;;;16.00;2.25;;;5.00;99.90;;;;;;5063289;28;20641;-85
2022/02/07 05:44:19;;;;;;;12.52;1.92;;;5.10;99.90;;;;;;5029786;28;20041;-86
2022/02/07 05:46:44;;;;;;;9.50;1.10;;;5.00;99.90;;;;;;5031742;28;20436;-86
2022/02/07 05:49:11;;;;;;;8.63;1.27;;;5.00;99.90;;;;;;5037822;28;20104;-85
2022/02/07 05:51:37;;;;;;;13.60;1.88;;;4.80;99.90;;;;;;5041138;28;20671;-85
2022/02/07 05:54:02;;;;;;;14.05;2.60;;;4.80;99.90;;;;;;5042916;28;20086;-85
2022/02/07 05:56:31;;;;;;;16.15;3.17;;;4.80;99.90;;;;;;5051411;28;20047;-85
2022/02/07 06:06:50;;;;;;;16.80;3.58;;;4.60;99.90;;;;;;5068480;28;20028;-86
2022/02/07 06:09:35;;;;;;;22.20;2.80;;;4.60;99.90;;;;;;5053106;28;20047;-85
2022/02/07 06:16:45;;;;;;;19.48;3.20;;;5.20;99.90;;;;;;5062968;28;20035;-86
2022/02/07 06:19:43;;;;;;;24.80;3.47;;;4.60;99.90;;;;;;5004758;28;20040;-84
2022/02/07 06:25:17;;;;;;;25.50;2.45;;;4.60;99.90;;;;;;5064669;28;20081;-84
2022/02/07 06:27:43;;;;;;;19.13;2.63;;;4.60;99.90;;;;;;5063898;28;20565;-83
2022/02/07 06:30:31;;;;;;;15.73;2.30;;;4.70;99.90;;;;;;5065963;28;20044;-84
2022/02/07 06:32:57;;;;;;;22.55;3.25;;;4.60;99.90;;;;;;5049745;28;20048;-84
2022/02/07 06:35:22;;;;;;;22.20;3.10;;;4.60;99.90;;;;;;5065757;28;20056;-84
2022/02/07 06:37:52;;;;;;;18.40;3.08;;;4.60;99.90;;;;;;5053866;28;20562;-86
2022/02/07 06:40:21;;;;;;;17.17;2.13;;;4.80;99.90;;;;;;5017585;28;20040;-84
2022/02/07 06:42:49;;;;;;;16.25;2.40;;;4.60;99.90;;;;;;5043218;28;20059;-84
2022/02/07 06:45:17;;;;;;;18.90;3.20;;;4.60;99.90;;;;;;5048352;28;20080;-83
2022/02/07 06:48:18;;;;;;;21.17;2.00;;;4.60;99.90;;;;;;5028848;28;20178;-85
2022/02/07 06:51:07;;;;;;;16.23;2.90;;;4.50;99.90;;;;;;5056754;28;20560;-84
2022/02/07 06:53:42;;;;;;;13.95;1.92;;;4.60;99.90;;;;;;5051757;28;20526;-84
2022/02/07 06:56:08;;;;;;;16.80;2.45;;;4.50;99.90;;;;;;5058410;28;20040;-84
2022/02/07 06:58:35;;;;;;;24.70;3.25;;;4.40;99.90;;;;;;5079064;28;20051;-83
2022/02/07 07:01:04;;;;;;;21.38;3.05;;;4.80;99.90;;;;;;5049818;28;20571;-86
2022/02/07 07:03:50;;;;;;;15.93;3.58;;;4.40;99.90;;;;;;5066837;28;20039;-84
2022/02/07 07:06:16;;;;;;;20.83;2.60;;;4.40;99.90;;;;;;5049630;28;20044;-84
2022/02/07 07:09:14;;;;;;;17.35;2.30;;;4.30;99.90;;;;;;5060865;28;20665;-84
2022/02/07 07:11:48;;;;;;;21.90;2.60;;;4.30;99.90;;;;;;5039774;28;20047;-84
2022/02/07 07:16:50;;;;;;;15.57;2.50;;;4.20;99.90;;;;;;5069435;28;20044;-83
2022/02/07 07:19:18;;;;;;;16.20;1.77;;;4.20;99.90;;;;;;5032760;28;20534;-84
2022/02/07 07:21:44;;;;;;;13.05;1.52;;;4.20;99.90;;;;;;5057977;28;20040;-83
2022/02/07 07:24:10;;;;;;;17.30;2.65;;;4.40;99.90;;;;;;5023449;28;20045;-84
2022/02/07 07:26:40;;;;;;;11.80;1.60;;;4.00;99.90;;;;;;5024689;28;20109;-83
2022/02/07 07:29:17;;;;;;;23.35;2.65;;;4.00;99.90;;;;;;5040692;28;20484;-83
2022/02/07 07:31:48;;;;;;;20.23;2.35;;;4.10;99.90;;;;;;5055824;28;20032;-84
2022/02/07 07:34:18;;;;;;;24.90;3.25;;;4.70;99.90;;;;;;5022579;28;20151;-84
2022/02/07 07:36:44;;;;;;;17.15;1.88;;;4.10;99.90;;;;;;5022004;28;20036;-83
2022/02/07 07:39:14;;;;;;;17.10;3.10;;;4.10;99.90;;;;;;5050606;28;20163;-83
2022/02/07 07:41:41;;;;;;;20.40;2.95;;;4.10;99.90;;;;;;5053270;28;20044;-83
2022/02/07 07:44:08;;;;;;;21.23;2.78;;;4.10;99.90;;;;;;5058392;28;20157;-83
2022/02/07 07:46:34;;;;;;;22.65;3.33;;;4.20;99.90;;;;;;5026964;28;20103;-83
2022/02/07 07:49:15;;;;;;;29.65;4.25;;;4.30;99.90;;;;;;5037219;28;20855;-83
2022/02/07 07:51:55;;;;;;;24.17;3.78;;;4.40;99.90;;;;;;5056861;28;20055;-83
2022/02/07 07:54:42;;;;;;;25.05;4.47;;;4.50;99.90;;;;;;5053838;28;20546;-83
2022/02/07 08:02:38;;;;;;;33.05;4.70;;;4.80;99.90;;;;;;5055484;28;20114;-84
2022/02/07 08:05:14;;;;;;;22.17;3.63;;;4.70;99.90;;;;;;5057421;28;20033;-84
2022/02/07 08:07:41;;;;;;;26.50;4.13;;;4.80;99.90;;;;;;5024809;28;20131;-83
2022/02/07 08:10:26;;;;;;;25.92;4.45;;;4.80;99.90;;;;;;5056264;28;20723;-84
2022/02/07 08:12:52;;;;;;;27.23;4.55;;;4.90;99.90;;;;;;5060647;28;20495;-84
2022/02/07 08:15:18;;;;;;;30.40;3.72;;;4.90;99.90;;;;;;5057309;28;20044;-84
2022/02/07 08:17:43;;;;;;;29.83;4.15;;;5.10;99.90;;;;;;5022115;28;20606;-84
2022/02/07 08:20:11;;;;;;;29.35;3.95;;;5.00;99.90;;;;;;5022011;28;20474;-83
2022/02/07 08:22:37;;;;;;;27.00;5.03;;;5.10;99.90;;;;;;5058540;28;20161;-83
2022/02/07 08:25:03;;;;;;;32.72;5.05;;;5.20;99.90;;;;;;5037283;28;20151;-84
2022/02/07 08:27:30;;;;;;;28.05;4.88;;;5.10;99.90;;;;;;5055320;28;20033;-83
2022/02/07 08:29:57;;;;;;;35.42;6.05;;;5.10;99.90;;;;;;5036913;28;20116;-84
2022/02/07 08:32:23;;;;;;;29.70;5.70;;;5.20;99.90;;;;;;5038817;28;20488;-83
2022/02/07 08:34:49;;;;;;;27.02;4.55;;;5.20;99.90;;;;;;5040962;28;20033;-83
2022/02/07 08:37:14;;;;;;;32.33;5.53;;;5.20;99.90;;;;;;5057539;28;20750;-84
2022/02/07 08:39:42;;;;;;;26.13;3.78;;;5.30;99.90;;;;;;5075576;28;20037;-83
2022/02/07 08:42:08;;;;;;;25.70;4.63;;;5.30;99.90;;;;;;5026868;28;20040;-84
2022/02/07 08:44:34;;;;;;;26.38;4.15;;;5.40;99.90;;;;;;5063064;28;20036;-84
2022/02/07 08:46:59;;;;;;;24.55;4.20;;;5.50;99.90;;;;;;5061650;28;20037;-83
2022/02/07 08:49:25;;;;;;;37.88;4.50;;;5.50;99.90;;;;;;5066262;28;20048;-84
2022/02/07 08:51:51;;;;;;;26.42;3.90;;;5.50;99.90;;;;;;5044626;28;20094;-84
2022/02/07 08:54:24;;;;;;;22.30;3.45;;;5.50;99.90;;;;;;5036743;28;20048;-84
2022/02/07 08:57:02;;;;;;;36.35;6.55;;;5.80;99.90;;;;;;5031285;28;20064;-85
2022/02/07 08:59:36;;;;;;;23.92;3.55;;;5.70;99.90;;;;;;5063708;28;21929;-84
2022/02/07 09:02:17;;;;;;;24.10;3.95;;;5.70;99.90;;;;;;5044720;28;20044;-84
2022/02/07 09:07:36;;;;;;;27.25;3.92;;;5.80;99.90;;;;;;5064992;28;20047;-85
2022/02/07 09:09:58;;;;;;;28.55;3.67;;;5.90;99.90;;;;;;5050864;28;20051;-85
2022/02/07 09:12:24;;;;;;;33.35;4.70;;;5.90;99.90;;;;;;5059431;28;20036;-85
2022/02/07 09:15:00;;;;;;;23.23;4.47;;;6.00;99.90;;;;;;5029083;28;20055;-84
2022/02/07 09:17:25;;;;;;;;;;;6.20;99.90;;;;;;5045167;28;20050;-84
2022/02/07 09:19:51;;;;;;;35.30;5.47;;;6.10;99.90;;;;;;5048237;28;19945;-84
2022/02/07 09:22:17;;;;;;;29.88;4.20;;;6.10;99.90;;;;;;5041802;28;20060;-83
2022/02/07 09:24:43;;;;;;;34.03;6.80;;;6.20;99.90;;;;;;5058460;28;20040;-84
2022/02/07 09:27:08;;;;;;;29.65;4.65;;;6.20;99.90;;;;;;5043508;28;20132;-84
2022/02/07 09:29:34;;;;;;;27.65;5.75;;;6.30;99.90;;;;;;5059843;28;20488;-84
2022/02/07 09:32:02;;;;;;;29.92;4.28;;;6.40;99.90;;;;;;5059429;28;20144;-84
2022/02/07 09:34:28;;;;;;;29.58;6.35;;;6.40;99.90;;;;;;5049494;28;20050;-84
2022/02/07 09:36:54;;;;;;;29.30;4.28;;;6.40;99.90;;;;;;5044493;28;20546;-84
2022/02/07 09:39:24;;;;;;;26.80;4.53;;;6.40;99.90;;;;;;5041936;28;20043;-85
2022/02/07 09:41:52;;;;;;;28.25;5.07;;;6.50;99.90;;;;;;5057419;28;20044;-84
2022/02/07 09:44:21;;;;;;;28.15;4.78;;;6.60;99.90;;;;;;5061651;28;20407;-84
2022/02/07 09:46:47;;;;;;;33.10;5.13;;;6.70;99.90;;;;;;5061140;28;20040;-84
2022/02/07 09:49:15;;;;;;;23.35;5.10;;;6.70;99.90;;;;;;5045167;28;20037;-84
2022/02/07 09:51:43;;;;;;;29.98;6.68;;;6.70;99.90;;;;;;5030778;28;20032;-84
2022/02/07 09:54:14;;;;;;;24.33;5.10;;;6.80;99.90;;;;;;5025439;28;20045;-84
2022/02/07 09:56:39;;;;;;;28.13;4.93;;;6.90;99.90;;;;;;5043433;28;20040;-84
2022/02/07 09:59:05;;;;;;;25.33;3.40;;;6.90;99.90;;;;;;5025720;28;20044;-84
2022/02/07 10:01:35;;;;;;;25.30;4.10;;;7.00;99.90;;;;;;5028072;28;20058;-84
2022/02/07 10:04:14;;;;;;;20.42;3.78;;;7.00;99.90;;;;;;5045715;28;20086;-86
2022/02/07 10:07:00;;;;;;;20.98;3.38;;;7.10;99.90;;;;;;5037852;28;20037;-85
2022/02/07 10:17:29;;;;;;;23.35;3.83;;;7.20;99.90;;;;;;5033193;28;20040;-86
2022/02/07 10:38:17;;;;;;;22.35;4.55;;;7.40;99.90;;;;;;5039834;28;20039;-86
2022/02/07 10:42:10;;;;;;;32.50;4.82;;;7.50;99.90;;;;;;5042518;28;20045;-85
2022/02/07 10:45:04;;;;;;;30.88;4.68;;;7.50;99.90;;;;;;4948217;28;20096;-84
2022/02/07 10:47:47;;;;;;;22.98;4.10;;;7.60;99.90;;;;;;4948737;28;20054;-85
2022/02/07 10:50:18;;;;;;;30.05;5.30;;;7.70;99.90;;;;;;5043293;28;20079;-84
2022/02/07 10:52:52;;;;;;;24.58;3.58;;;8.20;99.90;;;;;;5056540;28;20040;-85
2022/02/07 10:55:28;;;;;;;22.23;3.92;;;7.70;99.90;;;;;;5048507;28;20056;-85
2022/02/07 10:58:00;;;;;;;27.05;4.72;;;7.80;99.90;;;;;;5028884;28;20233;-85
2022/02/07 11:00:34;;;;;;;27.02;5.03;;;7.90;99.90;;;;;;5029392;28;20036;-84
2022/02/07 11:21:14;;;;;;;25.70;4.03;;;8.00;99.90;;;;;;5060649;28;20066;-83
2022/02/07 11:26:14;;;;;;;24.23;4.95;;;8.00;99.90;;;;;;5045506;28;20125;-84
2022/02/07 11:28:43;;;;;;;22.55;3.95;;;8.00;99.90;;;;;;5026367;28;20036;-83
2022/02/07 11:31:09;;;;;;;20.10;3.20;;;7.90;99.90;;;;;;5058364;28;20055;-83
2022/02/07 11:33:48;;;;;;;19.60;3.88;;;8.00;99.90;;;;;;5040269;28;20120;-83
2022/02/07 11:36:27;;;;;;;26.40;4.00;;;8.00;99.90;;;;;;5030825;28;20123;-83
2022/02/07 11:39:03;;;;;;;21.55;3.22;;;8.30;99.90;;;;;;5055572;28;20702;-84
2022/02/07 11:41:28;;;;;;;28.05;3.78;;;8.50;99.90;;;;;;5028508;28;20041;-84
2022/02/07 11:43:56;;;;;;;19.02;3.15;;;8.50;99.90;;;;;;5047179;28;20425;-84
2022/02/07 11:46:28;;;;;;;27.23;3.85;;;8.60;99.90;;;;;;5029799;28;20059;-85
2022/02/07 11:49:06;;;;;;;21.45;4.40;;;8.50;99.90;;;;;;5029448;28;20045;-86
2022/02/07 11:51:43;;;;;;;20.13;2.88;;;8.60;99.90;;;;;;5033170;28;20045;-85
2022/02/07 11:54:36;;;;;;;19.65;3.17;;;8.50;99.90;;;;;;5043816;28;20040;-85
2022/02/07 11:57:25;;;;;;;20.98;3.42;;;8.40;99.90;;;;;;5042954;28;20443;-85
2022/02/07 12:00:09;;;;;;;19.48;4.20;;;8.40;99.90;;;;;;5042686;28;20488;-85
2022/02/07 12:02:36;;;;;;;30.10;3.78;;;8.50;99.90;;;;;;5028287;28;20070;-85
2022/02/07 12:05:10;;;;;;;22.77;2.88;;;8.50;99.90;;;;;;5031311;28;20041;-85
2022/02/07 12:08:07;;;;;;;19.95;2.92;;;8.20;99.90;;;;;;5050293;28;20170;-85
2022/02/07 12:10:38;;;;;;;16.33;3.20;;;8.30;99.90;;;;;;5029738;28;20040;-85
2022/02/07 12:14:11;;;;;;;18.13;3.80;;;8.10;99.90;;;;;;4995303;28;20129;-85
2022/02/07 12:17:06;;;;;;;14.38;2.15;;;8.00;99.90;;;;;;4918059;29;20051;-85
2022/02/07 12:20:26;;;;;;;15.93;2.70;;;8.00;99.90;;;;;;4986269;28;20428;-84
2022/02/07 12:23:11;;;;;;;18.13;2.97;;;8.00;99.90;;;;;;4964507;28;20706;-85
2022/02/07 12:29:13;;;;;;;25.50;2.55;;;8.00;99.90;;;;;;4981233;28;20402;-86
2022/02/07 12:32:34;;;;;;;16.65;3.15;;;8.00;99.90;;;;;;4959358;28;20042;-85
2022/02/07 12:35:46;;;;;;;20.88;2.67;;;7.90;99.90;;;;;;5010528;28;20511;-84
2022/02/07 12:38:44;;;;;;;16.15;2.72;;;7.90;99.90;;;;;;5041695;28;20120;-85
2022/02/07 12:42:05;;;;;;;18.20;3.65;;;8.10;99.90;;;;;;5023994;28;20063;-85
2022/02/07 12:45:15;;;;;;;19.52;2.90;;;8.20;99.90;;;;;;5054791;28;20076;-85
2022/02/07 12:48:13;;;;;;;19.42;3.45;;;8.50;99.90;;;;;;5054316;28;20080;-85
2022/02/07 12:51:00;;;;;;;15.93;2.42;;;8.50;99.90;;;;;;5026644;28;20037;-85
2022/02/07 12:54:17;;;;;;;20.88;3.42;;;8.50;99.90;;;;;;5041708;28;20930;-84
2022/02/07 12:56:50;;;;;;;20.75;3.58;;;8.60;99.90;;;;;;5078634;28;20035;-85
2022/02/07 12:59:58;;;;;;;21.00;3.83;;;8.70;99.90;;;;;;5073345;28;20053;-84
2022/02/07 13:02:59;;;;;;;15.85;2.83;;;8.80;99.90;;;;;;5025006;28;20060;-86
2022/02/07 13:05:43;;;;;;;13.70;2.50;;;8.80;99.90;;;;;;5054294;28;20114;-84
2022/02/07 13:08:39;;;;;;;11.60;2.30;;;8.70;99.90;;;;;;5058520;28;20041;-85
2022/02/07 13:11:23;;;;;;;17.58;3.13;;;8.80;99.90;;;;;;5043934;28;20544;-84
2022/02/07 13:13:58;;;;;;;14.25;2.40;;;8.50;99.90;;;;;;5023983;28;20037;-84
2022/02/07 13:16:30;;;;;;;13.20;2.58;;;8.50;99.90;;;;;;5055586;28;20037;-84
2022/02/07 13:19:15;;;;;;;16.27;2.75;;;8.40;99.90;;;;;;5024595;28;20044;-85
2022/02/07 13:21:56;;;;;;;14.68;3.10;;;8.50;99.90;;;;;;5057997;28;20048;-84
2022/02/07 13:24:40;;;;;;;16.52;2.33;;;8.60;99.90;;;;;;5038401;28;20076;-84
2022/02/07 13:27:19;;;;;;;19.35;3.17;;;8.50;99.90;;;;;;5038639;28;21853;-84
2022/02/07 13:29:57;;;;;;;18.55;2.78;;;8.50;99.90;;;;;;5023679;28;20118;-84
2022/02/07 13:32:49;;;;;;;11.68;2.10;;;8.50;99.90;;;;;;5060286;28;20039;-84
2022/02/07 13:35:27;;;;;;;13.15;1.80;;;8.50;99.90;;;;;;5024357;28;20037;-85
2022/02/07 13:38:07;;;;;;;13.48;1.92;;;8.50;99.90;;;;;;5038920;28;20495;-84
2022/02/07 13:40:48;;;;;;;17.33;2.95;;;8.70;99.90;;;;;;5028770;28;20047;-85
2022/02/07 13:44:00;;;;;;;19.05;2.97;;;8.70;99.90;;;;;;5045590;28;20051;-84
2022/02/07 13:46:54;;;;;;;14.32;2.10;;;8.70;99.90;;;;;;5051450;28;20041;-84
2022/02/07 13:49:21;;;;;;;17.65;2.55;;;8.70;99.90;;;;;;5041601;28;20037;-84
2022/02/07 13:51:48;;;;;;;17.25;2.40;;;8.70;99.90;;;;;;5043978;28;21675;-84
2022/02/07 13:54:30;;;;;;;17.73;2.55;;;8.40;99.90;;;;;;5027858;28;22218;-84
2022/02/07 13:57:07;;;;;;;14.80;2.67;;;8.70;99.90;;;;;;5031262;28;20036;-84
2022/02/07 13:59:36;;;;;;;18.02;2.97;;;8.70;99.90;;;;;;5026130;28;20543;-84
2022/02/07 14:02:06;;;;;;;20.20;2.88;;;8.70;99.90;;;;;;5046057;28;20132;-85
2022/02/07 14:04:36;;;;;;;15.63;2.05;;;8.40;99.90;;;;;;5074254;28;20519;-84
2022/02/07 14:07:17;;;;;;;15.27;2.63;;;8.20;99.90;;;;;;5025158;28;20121;-84
2022/02/07 14:10:21;;;;;;;20.70;2.78;;;8.10;99.90;;;;;;5057438;28;20506;-85
2022/02/07 14:12:52;;;;;;;17.08;2.63;;;8.00;99.90;;;;;;5036765;28;20102;-84
2022/02/07 14:15:25;;;;;;;15.32;2.20;;;7.80;99.90;;;;;;5044407;28;20097;-84
2022/02/07 14:17:52;;;;;;;23.00;2.47;;;7.80;99.90;;;;;;5045026;28;20892;-84
2022/02/07 14:21:08;;;;;;;14.20;2.17;;;7.70;99.90;;;;;;5014176;28;20041;-85
2022/02/07 14:23:42;;;;;;;13.20;1.75;;;7.70;99.90;;;;;;5056598;28;20049;-84
2022/02/07 14:27:13;;;;;;;19.15;2.97;;;7.60;99.90;;;;;;5000504;28;20097;-84
2022/02/07 14:30:18;;;;;;;20.40;2.72;;;7.60;99.90;;;;;;5033423;28;20056;-84
2022/02/07 14:33:11;;;;;;;14.02;1.90;;;7.50;99.90;;;;;;5043771;28;20510;-85
2022/02/07 14:35:41;;;;;;;11.85;2.22;;;7.50;99.90;;;;;;5037606;28;20044;-85
2022/02/07 14:38:20;;;;;;;13.27;2.60;;;7.40;99.90;;;;;;5059451;28;20041;-84
2022/02/07 14:41:12;;;;;;;25.52;5.30;;;7.50;99.90;;;;;;5036227;28;20036;-84
2022/02/07 14:44:05;;;;;;;16.70;1.98;;;7.40;99.90;;;;;;5038364;28;20672;-84
2022/02/07 14:46:48;;;;;;;12.20;1.92;;;7.40;99.90;;;;;;5042436;28;20072;-84
2022/02/07 14:49:18;;;;;;;14.52;1.50;;;7.40;99.90;;;;;;5046007;28;20036;-84
2022/02/07 14:52:05;;;;;;;16.92;1.92;;;8.00;99.90;;;;;;5041617;28;20075;-84
2022/02/07 14:54:52;;;;;;;13.13;2.65;;;7.30;99.90;;;;;;5027465;28;20044;-84
2022/02/07 14:57:18;;;;;;;20.13;2.45;;;7.30;99.90;;;;;;5027143;28;20083;-83
2022/02/07 14:59:43;;;;;;;12.85;1.92;;;7.30;99.90;;;;;;5043118;28;20033;-83
2022/02/07 15:02:09;;;;;;;14.52;2.53;;;7.30;99.90;;;;;;5027310;28;20067;-84
2022/02/07 15:04:35;;;;;;;13.63;2.47;;;7.30;99.90;;;;;;5030788;28;20559;-84
2022/02/07 15:07:03;;;;;;;12.55;1.98;;;7.40;99.90;;;;;;5025443;28;20048;-84
2022/02/07 15:09:37;;;;;;;18.23;2.08;;;7.30;99.90;;;;;;5013119;28;20047;-84
2022/02/07 15:12:08;;;;;;;8.70;1.65;;;7.30;99.90;;;;;;5058561;28;20079;-83
2022/02/07 15:14:35;;;;;;;11.65;1.85;;;7.20;99.90;;;;;;5027425;28;20123;-83
2022/02/07 15:17:02;;;;;;;11.70;1.73;;;7.20;99.90;;;;;;5076706;28;20052;-83
2022/02/07 15:19:30;;;;;;;21.92;2.78;;;7.20;99.90;;;;;;5018904;28;20068;-83
2022/02/07 15:21:57;;;;;;;13.00;1.92;;;7.20;99.90;;;;;;5025476;28;20086;-84
2022/02/07 15:24:25;;;;;;;12.98;1.38;;;7.20;99.90;;;;;;5014968;28;20052;-84
2022/02/07 15:26:51;;;;;;;14.68;1.92;;;7.10;99.90;;;;;;5030013;28;20036;-84
2022/02/07 15:29:17;;;;;;;15.98;1.73;;;7.00;99.90;;;;;;5024975;28;20033;-84
2022/02/07 15:31:48;;;;;;;17.88;2.10;;;7.00;99.90;;;;;;5046852;28;20963;-83
2022/02/07 15:34:16;;;;;;;10.90;1.60;;;6.90;99.90;;;;;;5028078;28;20045;-83
2022/02/07 15:36:41;;;;;;;14.77;2.47;;;7.10;99.90;;;;;;5047144;28;20109;-82
2022/02/07 15:39:09;;;;;;;10.77;1.50;;;6.90;99.90;;;;;;5027339;28;20124;-82
2022/02/07 15:41:35;;;;;;;12.27;1.90;;;6.90;99.90;;;;;;5043754;28;20543;-83
2022/02/07 15:44:02;;;;;;;17.10;2.25;;;6.90;99.90;;;;;;5045059;28;20138;-84
2022/02/07 15:46:29;;;;;;;10.80;1.50;;;6.90;99.90;;;;;;5032437;28;20028;-84
2022/02/07 15:48:56;;;;;;;12.27;2.45;;;6.80;99.90;;;;;;5042497;28;20087;-82
2022/02/07 15:51:21;;;;;;;11.20;1.67;;;6.80;99.90;;;;;;5059975;28;20040;-83
2022/02/07 15:53:48;;;;;;;15.05;2.33;;;6.60;99.90;;;;;;5032841;28;20091;-83
2022/02/07 15:56:14;;;;;;;13.27;1.40;;;6.70;99.90;;;;;;5030471;28;20135;-83
2022/02/07 15:58:40;;;;;;;17.38;3.75;;;6.60;99.90;;;;;;5027578;28;20036;-83
2022/02/07 16:01:05;;;;;;;10.68;1.80;;;6.50;99.90;;;;;;5020207;28;20064;-83
2022/02/07 16:03:31;;;;;;;12.90;1.23;;;6.50;99.90;;;;;;5043883;28;20397;-83
2022/02/07 16:05:57;;;;;;;15.60;1.98;;;6.50;99.90;;;;;;5056823;28;20069;-83
2022/02/07 16:08:22;;;;;;;7.85;1.40;;;6.40;99.90;;;;;;5029093;28;20043;-82
2022/02/07 16:10:48;;;;;;;24.88;1.83;;;6.40;99.90;;;;;;5024694;28;20386;-82
2022/02/07 16:15:39;;;;;;;12.50;1.73;;;6.40;99.90;;;;;;5041278;28;20055;-83
2022/02/07 16:18:05;;;;;;;12.18;2.15;;;6.40;99.90;;;;;;5039041;28;20056;-83
2022/02/07 16:20:31;;;;;;;14.45;2.72;;;6.30;99.90;;;;;;5029276;28;20081;-83
2022/02/07 16:22:58;;;;;;;16.33;2.47;;;6.30;99.90;;;;;;5025396;28;20094;-83
2022/02/07 16:25:24;;;;;;;13.73;1.67;;;6.40;99.90;;;;;;5055676;28;20388;-83
2022/02/07 16:27:50;;;;;;;9.80;1.80;;;6.20;99.90;;;;;;5053499;28;20081;-84
2022/02/07 16:30:15;;;;;;;12.27;2.13;;;6.20;99.90;;;;;;5029885;28;20036;-83